Time;durP1;ratioP1;P1;durP2;ratioP2;P2;SDS_P1;SDS_P2;PMS_P1;PMS_P2;Temp;Humidity;BMP_temperature;BMP_pressure;BME280_temperature;BME280_humidity;BME280_pressure;Samples;Min_cycle;Max_cycle;Signal;HPM_P1;HPM_P2
2023/03/27 00:02:13;;;;;;;1999.90;999.90;;;;;;;5.57;100.00;96289.38;5035361;28;20029;-76
2023/03/27 00:04:40;;;;;;;1999.90;999.90;;;;;;;5.53;100.00;96286.47;5035355;28;20035;-75
2023/03/27 00:07:05;;;;;;;1999.90;999.90;;;;;;;5.49;100.00;96276.50;5053430;28;20029;-76
2023/03/27 00:09:31;;;;;;;1999.90;999.90;;;;;;;5.58;100.00;96277.41;5052940;28;20464;-75
2023/03/27 00:11:57;;;;;;;1999.90;999.90;;;;;;;5.45;100.00;96270.13;5053122;28;20060;-75
2023/03/27 00:14:23;;;;;;;1999.90;999.90;;;;;;;5.34;100.00;96272.22;5053164;28;20025;-76
2023/03/27 00:16:49;;;;;;;1999.90;999.90;;;;;;;5.29;100.00;96270.41;5053510;28;20060;-75
2023/03/27 00:19:15;;;;;;;1999.90;999.90;;;;;;;5.33;100.00;96276.84;5035382;28;20033;-74
2023/03/27 00:21:43;;;;;;;1999.90;999.90;;;;;;;5.22;100.00;96272.75;5035013;28;20025;-77
2023/03/27 00:24:10;;;;;;;1999.90;999.90;;;;;;;5.30;100.00;96268.50;5035105;28;20025;-75
2023/03/27 00:26:36;;;;;;;1999.90;999.90;;;;;;;5.47;100.00;96266.00;5052901;28;20125;-76
2023/03/27 00:29:03;;;;;;;1999.90;999.90;;;;;;;5.33;100.00;96257.88;5053171;28;20025;-75
2023/03/27 00:31:28;;;;;;;1999.90;999.90;;;;;;;5.44;100.00;96254.94;5053040;28;20532;-76
2023/03/27 00:33:54;;;;;;;1999.90;999.90;;;;;;;5.14;100.00;96234.69;5053285;28;20029;-76
2023/03/27 00:36:20;;;;;;;1999.90;999.90;;;;;;;5.24;100.00;96251.56;5052736;28;20033;-77
2023/03/27 00:38:45;;;;;;;1999.90;999.90;;;;;;;5.33;100.00;96249.75;5034994;28;20060;-76
2023/03/27 00:41:11;;;;;;;1999.90;999.90;;;;;;;5.27;100.00;96240.13;5034979;28;20493;-77
2023/03/27 00:43:43;;;;;;;1999.90;999.90;;;;;;;5.36;100.00;96251.03;5035374;28;20106;-76
2023/03/27 00:46:14;;;;;;;1999.90;999.90;;;;;;;5.62;100.00;96262.94;5035212;28;20044;-74
2023/03/27 00:48:45;;;;;;;1999.90;999.90;;;;;;;5.54;100.00;96260.16;5052637;28;20025;-76
2023/03/27 00:51:11;;;;;;;1999.90;999.90;;;;;;;5.43;100.00;96253.34;5018499;28;20025;-74
2023/03/27 00:53:37;;;;;;;1999.90;999.90;;;;;;;5.32;100.00;96261.72;5052548;28;20013;-77
2023/03/27 00:56:06;;;;;;;1999.90;999.90;;;;;;;5.30;100.00;96261.19;5052389;28;20119;-75
2023/03/27 00:58:54;;;;;;;1999.90;999.90;;;;;;;5.15;100.00;96264.22;5052462;28;20056;-76
2023/03/27 01:01:22;;;;;;;1999.90;999.90;;;;;;;5.11;100.00;96263.22;5052336;28;20486;-75
2023/03/27 01:03:48;;;;;;;1999.90;999.90;;;;;;;4.92;100.00;96259.03;5052393;28;20393;-75
2023/03/27 01:06:15;;;;;;;1999.90;999.90;;;;;;;4.92;100.00;96270.63;5052169;28;20124;-75
2023/03/27 01:08:43;;;;;;;1999.90;999.90;;;;;;;4.91;100.00;96281.78;5052215;28;20044;-75
2023/03/27 01:11:24;;;;;;;1999.90;999.90;;;;;;;4.93;100.00;96283.09;5051981;28;20083;-77
2023/03/27 01:14:14;;;;;;;1999.90;999.90;;;;;;;4.94;100.00;96300.97;5052452;28;20029;-76
2023/03/27 01:16:46;;;;;;;1999.90;999.90;;;;;;;5.00;100.00;96299.75;5052275;28;20391;-75
2023/03/27 01:19:29;;;;;;;1999.90;999.90;;;;;;;5.06;100.00;96314.00;5034131;28;20082;-75
2023/03/27 01:22:20;;;;;;;1999.90;999.90;;;;;;;4.99;100.00;96317.09;5033342;28;20021;-76
2023/03/27 01:25:22;;;;;;;1999.90;999.90;;;;;;;4.88;100.00;96313.00;5051899;28;20033;-76
2023/03/27 01:28:07;;;;;;;1999.90;999.90;;;;;;;4.86;100.00;96315.97;5051804;28;20169;-76
2023/03/27 01:30:45;;;;;;;1999.90;999.90;;;;;;;4.88;100.00;96309.47;5033852;28;20478;-74
2023/03/27 01:33:28;;;;;;;1999.90;999.90;;;;;;;4.85;100.00;96313.59;5034093;28;20032;-76
2023/03/27 01:36:07;;;;;;;1999.90;999.90;;;;;;;4.81;100.00;96304.44;5034128;28;20124;-75
2023/03/27 01:39:04;;;;;;;1999.90;999.90;;;;;;;4.84;100.00;96312.78;5052014;28;20029;-76
2023/03/27 01:41:41;;;;;;;1999.90;999.90;;;;;;;4.86;100.00;96315.19;5052276;28;20614;-73
2023/03/27 01:44:33;;;;;;;1999.90;999.90;;;;;;;4.65;100.00;96292.28;5052558;28;20036;-76
2023/03/27 01:47:06;;;;;;;1999.90;999.90;;;;;;;4.68;100.00;96300.63;5034202;28;20428;-74
2023/03/27 01:49:43;;;;;;;1999.90;999.90;;;;;;;4.75;100.00;96302.94;5034029;28;20017;-76
2023/03/27 01:52:13;;;;;;;1999.90;999.90;;;;;;;4.72;100.00;96293.50;5034328;28;20029;-76
2023/03/27 01:54:42;;;;;;;1999.90;999.90;;;;;;;4.68;100.00;96280.84;5034379;28;20028;-76
2023/03/27 01:57:15;;;;;;;1999.90;999.90;;;;;;;4.48;100.00;96282.03;5054956;28;20032;-76
2023/03/27 01:59:44;;;;;;;1999.90;999.90;;;;;;;4.53;100.00;96273.81;5037586;28;20539;-76
2023/03/27 02:02:25;;;;;;;1999.90;999.90;;;;;;;4.52;100.00;96268.69;5034002;28;20466;-75
2023/03/27 02:04:56;;;;;;;1999.90;999.90;;;;;;;4.53;100.00;96273.00;5033465;28;20123;-76
2023/03/27 02:07:32;;;;;;;1999.90;999.90;;;;;;;4.67;100.00;96279.25;5033327;28;20079;-76
2023/03/27 02:10:02;;;;;;;1999.90;999.90;;;;;;;4.55;100.00;96287.84;5051772;28;20037;-76
2023/03/27 02:12:40;;;;;;;1999.90;999.90;;;;;;;4.56;100.00;96294.06;5052458;28;20436;-74
2023/03/27 02:15:14;;;;;;;1999.90;999.90;;;;;;;4.29;100.00;96295.59;5052625;28;20021;-75
2023/03/27 02:17:46;;;;;;;1999.90;999.90;;;;;;;4.45;100.00;96292.66;5051873;28;20056;-75
2023/03/27 02:20:15;;;;;;;1999.90;999.90;;;;;;;4.32;100.00;96295.00;5050861;28;20417;-75
2023/03/27 02:22:47;;;;;;;1999.90;999.90;;;;;;;4.25;100.00;96299.22;5050898;28;20082;-76
2023/03/27 02:25:21;;;;;;;1999.90;999.90;;;;;;;4.01;100.00;96282.31;5032782;28;20158;-75
2023/03/27 02:27:48;;;;;;;1999.90;999.90;;;;;;;4.08;100.00;96296.22;5032920;28;20032;-76
2023/03/27 02:30:36;;;;;;;1999.90;999.90;;;;;;;4.13;100.00;96293.47;5032834;28;20044;-76
2023/03/27 02:33:13;;;;;;;1999.90;999.90;;;;;;;4.05;100.00;96292.22;5050874;28;20025;-76
2023/03/27 02:35:44;;;;;;;1999.90;999.90;;;;;;;4.11;100.00;96296.44;5051170;28;20032;-75
2023/03/27 02:38:19;;;;;;;1999.90;999.90;;;;;;;4.07;100.00;96295.41;5032484;28;20371;-76
2023/03/27 02:40:56;;;;;;;1999.90;999.90;;;;;;;4.08;100.00;96285.41;5032352;28;20037;-76
2023/03/27 02:43:34;;;;;;;1999.90;999.90;;;;;;;4.13;100.00;96294.28;5032509;28;20083;-77
2023/03/27 02:46:25;;;;;;;1999.90;999.90;;;;;;;4.17;100.00;96303.38;5032695;28;20059;-77
2023/03/27 02:48:56;;;;;;;1999.90;999.90;;;;;;;4.01;100.00;96291.19;5051348;28;20033;-75
2023/03/27 02:51:32;;;;;;;1999.90;999.90;;;;;;;4.15;100.00;96305.59;5033710;28;20021;-75
2023/03/27 02:54:05;;;;;;;1999.90;999.90;;;;;;;4.17;100.00;96310.69;5034371;28;20501;-76
2023/03/27 02:56:38;;;;;;;1999.90;999.90;;;;;;;4.14;100.00;96308.56;5033432;28;20501;-77
2023/03/27 02:59:12;;;;;;;1999.90;999.90;;;;;;;4.14;100.00;96298.56;5049294;28;20035;-77
2023/03/27 03:01:38;;;;;;;1999.90;999.90;;;;;;;4.20;100.00;96319.03;5032632;28;20044;-76
2023/03/27 03:04:27;;;;;;;1999.90;999.90;;;;;;;4.21;100.00;96326.06;5050508;28;20033;-76
2023/03/27 03:06:54;;;;;;;1999.90;999.90;;;;;;;4.20;100.00;96321.72;5039366;28;20094;-75
2023/03/27 03:09:20;;;;;;;1999.90;999.90;;;;;;;4.24;100.00;96332.78;5050455;28;20032;-76
2023/03/27 03:11:53;;;;;;;1999.90;999.90;;;;;;;4.28;100.00;96334.59;5032516;28;20036;-77
2023/03/27 03:14:24;;;;;;;1999.90;999.90;;;;;;;4.11;100.00;96326.22;5050397;28;20033;-76
2023/03/27 03:16:50;;;;;;;1999.90;999.90;;;;;;;3.91;100.00;96326.53;5050623;28;20027;-76
2023/03/27 03:19:15;;;;;;;1999.90;999.90;;;;;;;4.20;100.00;96339.84;5050231;28;20397;-76
2023/03/27 03:21:41;;;;;;;1999.90;999.90;;;;;;;4.23;100.00;96337.38;5050441;28;20087;-76
2023/03/27 03:24:06;;;;;;;1999.90;999.90;;;;;;;4.28;100.00;96341.91;5050475;28;20025;-76
2023/03/27 03:26:32;;;;;;;1999.90;999.90;;;;;;;3.99;100.00;96336.66;5050281;28;20482;-77
2023/03/27 03:28:59;;;;;;;1999.90;999.90;;;;;;;3.96;100.00;96342.66;5050318;28;20055;-75
2023/03/27 03:31:25;;;;;;;1999.90;999.90;;;;;;;4.05;100.00;96342.81;5032667;28;20124;-76
2023/03/27 03:34:09;;;;;;;1999.90;999.90;;;;;;;3.96;100.00;96339.97;5050153;28;20029;-79
2023/03/27 03:36:35;;;;;;;1999.90;999.90;;;;;;;4.21;100.00;96341.47;5031266;28;20040;-75
2023/03/27 03:39:01;;;;;;;1999.90;999.90;;;;;;;4.07;100.00;96354.94;5049662;28;20035;-76
2023/03/27 03:41:26;;;;;;;1999.90;999.90;;;;;;;4.11;100.00;96347.84;5049966;28;20029;-75
2023/03/27 03:43:52;;;;;;;1999.90;999.90;;;;;;;4.35;100.00;96369.41;5050126;28;20029;-74
2023/03/27 03:46:17;;;;;;;1999.90;999.90;;;;;;;4.31;100.00;96355.66;5035751;28;20076;-73
2023/03/27 03:48:42;;;;;;;1999.90;999.90;;;;;;;4.12;100.00;96359.47;5053983;28;20055;-75
2023/03/27 03:51:08;;;;;;;1999.90;999.90;;;;;;;4.15;100.00;96358.88;5035751;28;20061;-74
2023/03/27 03:53:33;;;;;;;1999.90;999.90;;;;;;;4.08;100.00;96364.66;5053445;28;20025;-77
2023/03/27 03:55:58;;;;;;;1999.90;999.90;;;;;;;3.88;100.00;96348.75;5052877;28;20029;-74
2023/03/27 03:58:24;;;;;;;1999.90;999.90;;;;;;;4.05;100.00;96365.25;5035987;28;20036;-76
2023/03/27 04:00:49;;;;;;;1999.90;999.90;;;;;;;4.20;100.00;96373.13;5035745;28;20021;-75
2023/03/27 04:03:15;;;;;;;1999.90;999.90;;;;;;;4.05;100.00;96362.53;5053830;28;20033;-76
2023/03/27 04:05:41;;;;;;;1999.90;999.90;;;;;;;4.02;100.00;96338.78;5036915;28;20029;-76
2023/03/27 04:08:07;;;;;;;1999.90;999.90;;;;;;;4.18;100.00;96347.47;5038925;28;20025;-75
2023/03/27 04:10:35;;;;;;;1999.90;999.90;;;;;;;4.24;100.00;96367.94;5053849;28;20079;-75
2023/03/27 04:13:00;;;;;;;1999.90;999.90;;;;;;;4.11;100.00;96364.06;5053671;28;20066;-74
2023/03/27 04:15:26;;;;;;;1999.90;999.90;;;;;;;4.03;100.00;96363.94;5050417;28;20104;-78
2023/03/27 04:17:52;;;;;;;1999.90;999.90;;;;;;;4.09;100.00;96365.47;5041872;28;20079;-77
2023/03/27 04:20:18;;;;;;;1999.90;999.90;;;;;;;4.19;100.00;96376.16;5053237;28;20067;-75
2023/03/27 04:22:46;;;;;;;1999.90;999.90;;;;;;;4.36;100.00;96383.72;5038763;28;20021;-75
2023/03/27 04:25:13;;;;;;;1999.90;999.90;;;;;;;4.32;100.00;96381.59;5015817;28;20495;-76
2023/03/27 04:27:42;;;;;;;1999.90;999.90;;;;;;;4.41;100.00;96386.38;5033273;28;20037;-76
2023/03/27 04:30:14;;;;;;;1999.90;999.90;;;;;;;4.32;100.00;96387.03;5033096;28;20025;-76
2023/03/27 04:32:40;;;;;;;1999.90;999.90;;;;;;;4.32;100.00;96384.31;5032839;28;20478;-74
2023/03/27 04:35:06;;;;;;;1999.90;999.90;;;;;;;4.35;100.00;96391.06;5030541;28;20025;-75
2023/03/27 04:37:31;;;;;;;1999.90;999.90;;;;;;;4.36;100.00;96391.84;5034204;28;20032;-75
2023/03/27 04:39:57;;;;;;;1999.90;999.90;;;;;;;4.35;100.00;96390.25;5053160;28;20021;-76
2023/03/27 04:42:22;;;;;;;1999.90;999.90;;;;;;;4.14;100.00;96381.63;5035567;28;20017;-73
2023/03/27 04:44:49;;;;;;;1999.90;999.90;;;;;;;4.16;100.00;96388.38;5036420;28;20036;-73
2023/03/27 04:47:15;;;;;;;1999.90;999.90;;;;;;;3.96;100.00;96385.94;5054623;28;20078;-75
2023/03/27 04:49:45;;;;;;;1999.90;999.90;;;;;;;4.03;100.00;96399.91;5052762;28;20064;-74
2023/03/27 04:52:13;;;;;;;1999.90;999.90;;;;;;;4.01;100.00;96402.09;5051836;28;20451;-74
2023/03/27 04:54:39;;;;;;;1999.90;999.90;;;;;;;4.03;100.00;96396.41;5034510;28;20025;-74
2023/03/27 04:57:06;;;;;;;1999.90;999.90;;;;;;;3.86;100.00;96386.06;5032795;28;20029;-74
2023/03/27 04:59:32;;;;;;;1999.90;999.90;;;;;;;3.97;100.00;96392.97;5034052;28;20147;-77
2023/03/27 05:02:00;;;;;;;1999.90;999.90;;;;;;;3.85;100.00;96389.91;5034367;28;20111;-75
2023/03/27 05:04:30;;;;;;;1999.90;999.90;;;;;;;4.00;100.00;96403.22;5049628;28;20091;-76
2023/03/27 05:06:58;;;;;;;1999.90;999.90;;;;;;;4.00;100.00;96403.22;5052471;28;20047;-77
2023/03/27 05:09:25;;;;;;;1999.90;999.90;;;;;;;4.09;100.00;96401.44;5052335;28;20021;-76
2023/03/27 05:11:51;;;;;;;1999.90;999.90;;;;;;;4.28;100.00;96386.03;5034365;28;20132;-76
2023/03/27 05:14:17;;;;;;;1999.90;999.90;;;;;;;4.24;100.00;96376.88;5034077;28;20181;-75
2023/03/27 05:16:42;;;;;;;1999.90;999.90;;;;;;;4.25;100.00;96392.03;5034695;28;20029;-77
2023/03/27 05:19:08;;;;;;;1999.90;999.90;;;;;;;4.21;100.00;96398.28;5053209;28;20025;-76
2023/03/27 05:21:33;;;;;;;1999.90;999.90;;;;;;;4.33;100.00;96404.88;5053691;28;20029;-77
2023/03/27 05:24:00;;;;;;;1999.90;999.90;;;;;;;4.21;100.00;96395.59;5051509;28;20083;-76
2023/03/27 05:26:25;;;;;;;1999.90;999.90;;;;;;;4.18;100.00;96399.69;5051100;28;20630;-74
2023/03/27 05:28:53;;;;;;;1999.90;999.90;;;;;;;4.25;100.00;96400.13;5051792;28;20459;-76
2023/03/27 05:31:19;;;;;;;1999.90;999.90;;;;;;;4.29;100.00;96394.94;5045509;28;20048;-85
2023/03/27 05:33:44;;;;;;;1999.90;999.90;;;;;;;4.29;100.00;96398.44;5064654;28;20021;-80
2023/03/27 05:36:10;;;;;;;1999.90;999.90;;;;;;;4.33;100.00;96402.16;5057977;28;20021;-78
2023/03/27 05:38:35;;;;;;;1999.90;999.90;;;;;;;4.27;100.00;96400.63;5050485;28;20107;-76
2023/03/27 05:41:01;;;;;;;1999.90;999.90;;;;;;;4.37;100.00;96398.88;5032691;28;20036;-75
2023/03/27 05:43:28;;;;;;;1999.90;999.90;;;;;;;4.50;100.00;96412.47;5033591;28;20064;-76
2023/03/27 05:45:53;;;;;;;1999.90;999.90;;;;;;;4.63;100.00;96409.03;5051400;28;20051;-75
2023/03/27 05:48:19;;;;;;;1999.90;999.90;;;;;;;4.63;100.00;96410.91;5052309;28;20025;-77
2023/03/27 05:50:45;;;;;;;1999.90;999.90;;;;;;;4.59;100.00;96420.72;5051338;28;20096;-75
2023/03/27 05:53:10;;;;;;;1999.90;999.90;;;;;;;4.60;100.00;96403.38;5032824;28;20067;-76
2023/03/27 05:55:37;;;;;;;1999.90;999.90;;;;;;;4.74;100.00;96415.06;5050295;28;20025;-75
2023/03/27 05:58:02;;;;;;;1999.90;999.90;;;;;;;4.75;100.00;96422.09;5051062;28;20029;-76
2023/03/27 06:00:31;;;;;;;1999.90;999.90;;;;;;;5.03;100.00;96431.91;5049728;28;20032;-75
2023/03/27 06:03:01;;;;;;;1999.90;999.90;;;;;;;4.91;100.00;96431.59;5032213;28;20009;-75
2023/03/27 06:05:28;;;;;;;1999.90;999.90;;;;;;;4.96;100.00;96428.78;5032149;28;20032;-73
2023/03/27 06:07:57;;;;;;;1999.90;999.90;;;;;;;5.15;100.00;96442.25;5031238;28;20052;-73
2023/03/27 06:10:25;;;;;;;1999.90;999.90;;;;;;;5.21;100.00;96443.78;5034153;28;20032;-77
2023/03/27 06:13:05;;;;;;;1999.90;999.90;;;;;;;5.22;100.00;96440.78;5048163;28;20018;-77
2023/03/27 06:15:32;;;;;;;1999.90;999.90;;;;;;;5.26;100.00;96436.34;5016478;28;20025;-77
2023/03/27 06:17:57;;;;;;;1999.90;999.90;;;;;;;5.22;100.00;96427.22;5034513;28;20044;-77
2023/03/27 06:20:23;;;;;;;1999.90;999.90;;;;;;;5.36;100.00;96441.59;5033087;28;20025;-77
2023/03/27 06:22:58;;;;;;;1999.90;999.90;;;;;;;5.37;100.00;96442.41;5027383;28;20028;-75
2023/03/27 06:25:26;;;;;;;1999.90;999.90;;;;;;;5.56;100.00;96447.75;5050931;28;20029;-76
2023/03/27 06:27:52;;;;;;;1999.90;999.90;;;;;;;5.46;100.00;96450.66;5032753;28;20398;-76
2023/03/27 06:30:20;;;;;;;1999.90;999.90;;;;;;;5.45;100.00;96449.06;5050866;28;20021;-74
2023/03/27 06:32:57;;;;;;;1999.90;999.90;;;;;;;5.60;100.00;96468.56;5051173;28;20021;-75
2023/03/27 06:35:24;;;;;;;1999.90;999.90;;;;;;;5.48;100.00;96457.41;5050949;28;20044;-75
2023/03/27 06:37:50;;;;;;;1999.90;999.90;;;;;;;5.59;100.00;96468.84;5050729;28;20058;-75
2023/03/27 06:40:21;;;;;;;1999.90;999.90;;;;;;;5.54;100.00;96466.25;5049584;28;20017;-75
2023/03/27 06:43:00;;;;;;;1999.90;999.90;;;;;;;5.61;100.00;96472.84;5049454;28;20021;-76
2023/03/27 06:45:36;;;;;;;1999.90;999.90;;;;;;;5.61;100.00;96472.84;5050070;28;20124;-75
2023/03/27 06:48:04;;;;;;;1999.90;999.90;;;;;;;5.72;100.00;96470.75;5050162;28;20032;-77
2023/03/27 06:50:31;;;;;;;1999.90;999.90;;;;;;;5.70;100.00;96471.06;5033038;28;20390;-75
2023/03/27 06:52:57;;;;;;;1999.90;999.90;;;;;;;5.77;100.00;96485.03;5050135;28;20032;-79
2023/03/27 06:55:25;;;;;;;1999.90;999.90;;;;;;;5.86;100.00;96487.88;5033236;28;20486;-75
2023/03/27 06:57:52;;;;;;;1999.90;999.90;;;;;;;5.95;100.00;96488.78;5050173;28;20040;-75
2023/03/27 07:00:23;;;;;;;1999.90;999.90;;;;;;;5.84;100.00;96492.78;5050680;28;20024;-76
2023/03/27 07:03:00;;;;;;;1999.90;999.90;;;;;;;6.02;100.00;96504.66;5035765;28;20026;-75
2023/03/27 07:05:32;;;;;;;1999.90;999.90;;;;;;;6.14;100.00;96500.31;5030520;28;20394;-76
2023/03/27 07:07:58;;;;;;;1999.90;999.90;;;;;;;6.16;100.00;96503.56;5030623;28;20151;-76
2023/03/27 07:10:24;;;;;;;1999.90;999.90;;;;;;;6.33;100.00;96505.63;5030511;28;20120;-75
2023/03/27 07:12:53;;;;;;;1999.90;999.90;;;;;;;6.44;100.00;96521.44;5032109;28;20029;-75
2023/03/27 07:15:19;;;;;;;1999.90;999.90;;;;;;;6.54;100.00;96516.88;5030927;28;20029;-74
2023/03/27 07:18:01;;;;;;;1999.90;999.90;;;;;;;6.62;100.00;96516.16;5032192;28;20470;-74
2023/03/27 07:20:29;;;;;;;1999.90;999.90;;;;;;;6.70;100.00;96513.53;5014669;28;20443;-75
2023/03/27 07:22:56;;;;;;;1999.90;999.90;;;;;;;6.66;100.00;96525.31;5016287;28;20087;-74
2023/03/27 07:25:23;;;;;;;1999.90;999.90;;;;;;;6.65;100.00;96515.53;5032886;28;20057;-75
2023/03/27 07:27:48;;;;;;;1999.90;999.90;;;;;;;6.72;100.00;96524.06;5034265;28;20029;-75
2023/03/27 07:30:14;;;;;;;1999.90;999.90;;;;;;;6.60;100.00;96521.09;5034223;28;20022;-75
2023/03/27 07:32:41;;;;;;;1999.90;999.90;;;;;;;6.54;100.00;96520.41;5034068;28;20379;-76
2023/03/27 07:35:07;;;;;;;1999.90;999.90;;;;;;;6.68;100.00;96523.06;5032647;28;20030;-76
2023/03/27 07:37:36;;;;;;;1999.90;999.90;;;;;;;6.77;100.00;96518.53;5034286;28;20029;-78
2023/03/27 07:40:03;;;;;;;1999.90;999.90;;;;;;;6.79;100.00;96519.03;5034216;28;20069;-76
2023/03/27 07:42:29;;;;;;;1999.90;999.90;;;;;;;6.76;100.00;96522.38;5034092;28;20017;-74
2023/03/27 07:44:54;;;;;;;1999.90;999.90;;;;;;;6.84;100.00;96529.78;5048952;28;20513;-75
2023/03/27 07:47:20;;;;;;;1999.90;999.90;;;;;;;6.74;100.00;96527.28;5035827;28;20032;-74
2023/03/27 07:49:45;;;;;;;1999.90;999.90;;;;;;;6.81;100.00;96535.81;5053640;28;20068;-75
2023/03/27 07:52:11;;;;;;;1999.90;999.90;;;;;;;6.99;100.00;96540.31;5054469;28;20477;-75
2023/03/27 07:54:36;;;;;;;1999.90;999.90;;;;;;;7.18;100.00;96559.16;5054747;28;20025;-75
2023/03/27 07:57:02;;;;;;;1999.90;999.90;;;;;;;7.03;100.00;96552.16;5036879;28;20052;-75
2023/03/27 07:59:27;;;;;;;1999.90;999.90;;;;;;;7.30;100.00;96552.06;5038343;28;20144;-76
2023/03/27 08:01:53;;;;;;;1999.90;999.90;;;;;;;7.37;100.00;96557.88;5037378;28;20021;-76
2023/03/27 08:04:19;;;;;;;1999.90;999.90;;;;;;;7.66;100.00;96572.97;5037304;28;20033;-75
2023/03/27 08:06:44;;;;;;;1999.90;999.90;;;;;;;7.78;100.00;96581.34;5052902;28;20023;-74
2023/03/27 08:09:10;;;;;;;1999.90;999.90;;;;;;;7.84;100.00;96575.47;5035773;28;20562;-75
2023/03/27 08:11:40;;;;;;;1999.90;999.90;;;;;;;7.88;100.00;96570.22;5053525;28;20032;-74
2023/03/27 08:14:05;;;;;;;1999.90;999.90;;;;;;;8.21;100.00;96576.13;5053462;28;20028;-76
2023/03/27 08:16:31;;;;;;;1999.90;999.90;;;;;;;8.17;100.00;96577.88;5053292;28;20021;-75
2023/03/27 08:18:57;;;;;;;1999.90;999.90;;;;;;;8.26;100.00;96563.19;5053701;28;20482;-76
2023/03/27 08:21:23;;;;;;;1999.90;999.90;;;;;;;8.38;100.00;96577.03;5053359;28;20025;-75
2023/03/27 08:23:48;;;;;;;1999.90;999.90;;;;;;;8.53;100.00;96578.53;5038135;28;20028;-75
2023/03/27 08:26:14;;;;;;;1999.90;999.90;;;;;;;8.54;100.00;96586.41;5055653;28;20482;-74
2023/03/27 08:28:41;;;;;;;1999.90;999.90;;;;;;;8.58;100.00;96587.34;5053978;28;20032;-75
2023/03/27 08:31:10;;;;;;;1999.90;999.90;;;;;;;8.45;100.00;96590.22;5053415;28;20123;-76
2023/03/27 08:33:35;;;;;;;1999.90;999.90;;;;;;;8.52;100.00;96588.63;5035181;28;20033;-75
2023/03/27 08:36:01;;;;;;;1999.90;999.90;;;;;;;8.51;100.00;96578.84;5033862;28;20025;-76
2023/03/27 08:38:28;;;;;;;1999.90;999.90;;;;;;;8.57;100.00;96591.22;5041900;28;20132;-75
2023/03/27 08:40:57;;;;;;;1999.90;999.90;;;;;;;8.36;100.00;96584.75;5052562;28;20048;-74
2023/03/27 08:43:26;;;;;;;1999.90;999.90;;;;;;;8.34;100.00;96595.13;5019010;28;20018;-74
2023/03/27 08:46:06;;;;;;;1999.90;999.90;;;;;;;8.23;100.00;96590.25;5031743;28;20113;-79
2023/03/27 08:48:56;;;;;;;1999.90;999.90;;;;;;;8.42;100.00;96588.94;5015234;28;20025;-74
2023/03/27 08:51:46;;;;;;;1999.90;999.90;;;;;;;8.71;100.00;96603.94;5032815;28;20037;-75
2023/03/27 08:54:33;;;;;;;1999.90;999.90;;;;;;;8.64;100.00;96611.75;5014969;28;20075;-75
2023/03/27 08:56:59;;;;;;;1999.90;999.90;;;;;;;8.49;100.00;96605.59;5032694;28;20041;-75
2023/03/27 08:59:29;;;;;;;1999.90;999.90;;;;;;;8.46;100.00;96619.84;5031435;28;20496;-77
2023/03/27 09:02:17;;;;;;;1999.90;999.90;;;;;;;8.66;100.00;96623.13;5033412;28;20022;-75
2023/03/27 09:04:50;;;;;;;1999.90;999.90;;;;;;;8.68;100.00;96623.63;5014662;28;20026;-76
2023/03/27 09:07:23;;;;;;;1999.90;999.90;;;;;;;8.79;100.00;96614.03;5014111;28;20060;-75
2023/03/27 09:10:10;;;;;;;1999.90;999.90;;;;;;;8.76;100.00;96625.59;5032284;28;20028;-74
2023/03/27 09:12:44;;;;;;;1999.90;999.90;;;;;;;9.13;100.00;96628.56;5032217;28;20033;-75
2023/03/27 09:15:14;;;;;;;1999.90;999.90;;;;;;;9.41;100.00;96622.81;5013993;28;20100;-75
2023/03/27 09:17:50;;;;;;;1999.90;999.90;;;;;;;9.58;100.00;96618.16;5030441;28;20059;-74
2023/03/27 09:20:20;;;;;;;1999.90;999.90;;;;;;;9.75;100.00;96627.44;5032399;28;20079;-75
2023/03/27 09:23:17;;;;;;;1999.90;999.90;;;;;;;9.61;100.00;96624.91;5031709;28;20363;-76
2023/03/27 09:25:49;;;;;;;1999.90;999.90;;;;;;;9.40;100.00;96634.81;5031678;28;20402;-74
2023/03/27 09:28:30;;;;;;;1999.90;999.90;;;;;;;9.29;100.00;96637.09;5032044;28;20026;-76
2023/03/27 09:30:56;;;;;;;1999.90;999.90;;;;;;;9.12;100.00;96640.56;5038516;28;20037;-75
2023/03/27 09:33:23;;;;;;;1999.90;999.90;;;;;;;8.93;100.00;96631.06;5051989;28;20029;-76
2023/03/27 09:35:48;;;;;;;1999.90;999.90;;;;;;;8.89;100.00;96641.03;5051637;28;20025;-75
2023/03/27 09:38:23;;;;;;;1999.90;999.90;;;;;;;8.79;100.00;96650.28;5034269;28;20579;-76
2023/03/27 09:41:14;;;;;;;1999.90;999.90;;;;;;;8.84;100.00;96652.06;5052117;28;20029;-77
2023/03/27 09:43:48;;;;;;;1999.90;999.90;;;;;;;8.79;100.00;96646.75;5034187;28;20091;-74
2023/03/27 09:46:18;;;;;;;1999.90;999.90;;;;;;;8.77;100.00;96644.34;5034472;28;20041;-73
2023/03/27 09:49:07;;;;;;;1999.90;999.90;;;;;;;8.85;100.00;96656.41;5052021;28;20021;-75
2023/03/27 09:51:45;;;;;;;1999.90;999.90;;;;;;;8.97;100.00;96656.59;5038188;28;20028;-76
2023/03/27 09:54:13;;;;;;;1999.90;999.90;;;;;;;9.14;100.00;96653.91;5051250;28;20021;-75
2023/03/27 09:57:02;;;;;;;1999.90;999.90;;;;;;;9.36;100.00;96659.25;5033627;28;20020;-76
2023/03/27 09:59:39;;;;;;;1999.90;999.90;;;;;;;9.56;100.00;96657.78;5033234;28;20421;-75
2023/03/27 10:02:23;;;;;;;1999.90;999.90;;;;;;;9.74;100.00;96661.34;5033048;28;20462;-76
2023/03/27 10:04:59;;;;;;;1999.90;999.90;;;;;;;9.89;100.00;96660.84;5050961;28;20029;-75
2023/03/27 10:07:25;;;;;;;1999.90;999.90;;;;;;;9.75;100.00;96676.59;5050865;28;20035;-75
2023/03/27 10:10:07;;;;;;;1999.90;999.90;;;;;;;10.11;100.00;96679.78;5050639;28;20021;-76
2023/03/27 10:12:35;;;;;;;1999.90;999.90;;;;;;;10.42;100.00;96682.34;5050604;28;20021;-77
2023/03/27 10:15:03;;;;;;;1999.90;999.90;;;;;;;10.57;100.00;96671.69;5050547;28;20009;-76
2023/03/27 10:17:37;;;;;;;1999.90;999.90;;;;;;;10.77;100.00;96681.88;5050537;28;20470;-78
2023/03/27 10:20:10;;;;;;;1999.90;999.90;;;;;;;10.86;100.00;96667.38;5051996;28;20040;-75
2023/03/27 10:22:37;;;;;;;1999.90;999.90;;;;;;;10.87;100.00;96672.50;5052245;28;20025;-76
2023/03/27 10:25:14;;;;;;;1999.90;999.90;;;;;;;11.35;100.00;96677.59;5034061;28;20032;-76
2023/03/27 10:27:42;;;;;;;1999.90;999.90;;;;;;;11.40;100.00;96691.09;5051801;28;20075;-76
2023/03/27 10:30:41;;;;;;;1999.90;999.90;;;;;;;11.69;100.00;96692.97;5033949;28;20470;-76
2023/03/27 10:33:06;;;;;;;1999.90;999.90;;;;;;;11.45;100.00;96688.16;4993662;28;20033;-81
2023/03/27 10:35:33;;;;;;;1999.90;999.90;;;;;;;11.13;100.00;96702.50;5034361;28;20495;-74
2023/03/27 10:38:00;;;;;;;1999.90;999.90;;;;;;;10.67;100.00;96701.41;5030751;28;20390;-76
2023/03/27 10:40:33;;;;;;;1999.90;999.90;;;;;;;10.61;100.00;96699.97;5030506;28;20095;-75
2023/03/27 10:43:03;;;;;;;1999.90;999.90;;;;;;;10.14;100.00;96670.97;5030260;28;20036;-76
2023/03/27 10:45:31;;;;;;;1999.90;999.90;;;;;;;10.32;100.00;96704.53;5029982;28;20049;-76
2023/03/27 10:47:59;;;;;;;1999.90;999.90;;;;;;;10.71;100.00;96710.53;5030967;28;20033;-75
2023/03/27 10:50:52;;;;;;;1999.90;999.90;;;;;;;10.73;100.00;96711.03;5013523;28;20033;-74
2023/03/27 10:53:31;;;;;;;1999.90;999.90;;;;;;;10.81;100.00;96697.66;5030394;28;20429;-75
2023/03/27 10:56:33;;;;;;;1999.90;999.90;;;;;;;10.98;100.00;96695.66;5029878;28;20049;-75
2023/03/27 10:59:03;;;;;;;1999.90;999.90;;;;;;;11.14;100.00;96701.38;5030809;28;20029;-76
2023/03/27 11:01:36;;;;;;;1999.90;999.90;;;;;;;11.22;100.00;96703.25;5012807;28;20036;-75
2023/03/27 11:04:12;;;;;;;1999.90;999.90;;;;;;;11.11;100.00;96711.06;5029902;28;20021;-75
2023/03/27 11:06:40;;;;;;;1999.90;999.90;;;;;;;11.26;100.00;96715.16;5012650;28;20109;-76
2023/03/27 11:09:25;;;;;;;1999.90;999.90;;;;;;;11.26;100.00;96693.25;5012310;28;20034;-75
2023/03/27 11:11:54;;;;;;;1999.90;999.90;;;;;;;11.17;100.00;96707.00;5030085;28;20098;-75